Time;durP1;ratioP1;P1;durP2;ratioP2;P2;SDS_P1;SDS_P2;PMS_P1;PMS_P2;Temp;Humidity;BMP_temperature;BMP_pressure;BME280_temperature;BME280_humidity;BME280_pressure;Samples;Min_cycle;Max_cycle;Signal;HPM_P1;HPM_P2
2021/12/15 00:01:36;;;;;;;;;;;;;;;0.21;100.00;100700.38;5002846;28;20370;-87
2021/12/15 00:04:01;;;;;;;;;;;;;;;0.22;100.00;100697.75;5003881;28;20004;-87
2021/12/15 00:06:27;;;;;;;;;;;;;;;0.26;100.00;100709.72;5019808;28;19996;-87
2021/12/15 00:08:53;;;;;;;;;;;;;;;0.26;100.00;100704.53;5007636;28;19925;-87
2021/12/15 00:11:19;;;;;;;;;;;;;;;0.22;100.00;100702.94;5001871;28;19913;-87
2021/12/15 00:13:45;;;;;;;;;;;;;;;0.11;100.00;100704.19;5004851;28;20395;-86
2021/12/15 00:16:11;;;;;;;;;;;;;;;0.02;100.00;100705.31;5002516;28;19995;-87
2021/12/15 00:18:41;;;;;;;;;;;;;;;0.04;100.00;100708.72;5004420;28;19918;-85
2021/12/15 00:21:07;;;;;;;;;;;;;;;0.07;100.00;100702.56;5019095;28;19917;-86
2021/12/15 00:23:32;;;;;;;;;;;;;;;0.06;100.00;100704.28;5010625;28;20278;-88
2021/12/15 00:25:58;;;;;;;;;;;;;;;-0.01;100.00;100695.88;5002743;28;19925;-88
2021/12/15 00:28:23;;;;;;;;;;;;;;;0.01;100.00;100698.41;5005281;28;19921;-86
2021/12/15 00:30:49;;;;;;;;;;;;;;;-0.03;100.00;100704.59;5021771;28;19932;-87
2021/12/15 00:33:14;;;;;;;;;;;;;;;-0.11;100.00;100699.66;5000142;28;19921;-89
2021/12/15 00:35:40;;;;;;;;;;;;;;;-0.22;100.00;100706.06;5004212;28;20370;-87
2021/12/15 00:38:06;;;;;;;;;;;;;;;-0.25;100.00;100701.00;5002233;28;20267;-89
2021/12/15 00:40:31;;;;;;;;;;;;;;;-0.29;100.00;100697.63;5001333;28;19953;-88
2021/12/15 00:42:58;;;;;;;;;;;;;;;-0.25;100.00;100698.38;5005524;28;19914;-88
2021/12/15 00:45:23;;;;;;;;;;;;;;;-0.23;100.00;100704.38;5005361;28;19952;-89
2021/12/15 00:47:51;;;;;;;;;;;;;;;-0.18;100.00;100715.47;5008302;28;19925;-88
2021/12/15 00:50:17;;;;;;;;;;;;;;;-0.20;100.00;100712.06;5026724;28;20276;-88
2021/12/15 00:52:43;;;;;;;;;;;;;;;-0.19;100.00;100726.75;5003245;28;19917;-88
2021/12/15 00:55:13;;;;;;;;;;;;;;;-0.15;100.00;100725.75;5017129;28;20437;-88
2021/12/15 00:57:38;;;;;;;;;;;;;;;-0.12;100.00;100723.06;5002436;28;20008;-87
2021/12/15 01:00:05;;;;;;;;;;;;;;;-0.09;100.00;100729.00;5002486;28;20006;-88
2021/12/15 01:02:31;;;;;;;;;;;;;;;-0.17;100.00;100725.78;5000932;28;19961;-87
2021/12/15 01:04:56;;;;;;;;;;;;;;;-0.29;100.00;100726.16;5004313;28;20416;-88
2021/12/15 01:07:22;;;;;;;;;;;;;;;-0.41;100.00;100742.91;5005703;28;19941;-86
2021/12/15 01:09:51;;;;;;;;;;;;;;;-0.48;100.00;100736.25;5004115;28;19917;-87
2021/12/15 01:20:21;;;;;;;;;;;;;;;-0.63;100.00;100757.41;5006711;28;19972;-88
2021/12/15 01:22:49;;;;;;;;;;;;;;;-0.62;100.00;100761.69;5032065;28;19988;-88
2021/12/15 01:25:23;;;;;;;;;;;;;;;-0.63;100.00;100764.34;5000906;28;20417;-87
2021/12/15 01:27:49;;;;;;;;;;;;;;;-0.63;100.00;100760.00;5005466;28;20356;-87
2021/12/15 01:30:15;;;;;;;;;;;;;;;-0.56;100.00;100761.53;5020184;28;19964;-87
2021/12/15 01:32:41;;;;;;;;;;;;;;;-0.52;100.00;100755.34;5020275;28;20338;-87
2021/12/15 01:35:07;;;;;;;;;;;;;;;-0.47;100.00;100756.06;4992586;28;19924;-87
2021/12/15 01:37:33;;;;;;;;;;;;;;;-0.45;100.00;100756.88;5004179;28;20294;-87
2021/12/15 01:39:58;;;;;;;;;;;;;;;-0.38;100.00;100761.88;5003063;28;20013;-87
2021/12/15 01:42:26;;;;;;;;;;;;;;;-0.35;100.00;100761.81;5001662;28;19921;-88
2021/12/15 01:47:36;;;;;;;;;;;;;;;-0.29;100.00;100764.19;5017017;28;19924;-87
2021/12/15 01:50:01;;;;;;;;;;;;;;;-0.37;100.00;100763.59;5004848;28;19917;-88
2021/12/15 01:52:32;;;;;;;;;;;;;;;-0.43;100.00;100755.09;5003260;28;19918;-89
2021/12/15 01:55:00;;;;;;;;;;;;;;;-0.43;100.00;100749.91;4999947;28;19921;-88
2021/12/15 01:57:27;;;;;;;;;;;;;;;-0.45;100.00;100746.50;4999675;28;19921;-88
2021/12/15 01:59:53;;;;;;;;;;;;;;;-0.43;100.00;100747.31;5018021;28;20075;-86
2021/12/15 02:02:19;;;;;;;;;;;;;;;-0.40;100.00;100751.56;5005170;28;19944;-87
2021/12/15 02:04:46;;;;;;;;;;;;;;;-0.39;100.00;100755.00;5018830;28;20006;-87
2021/12/15 02:07:16;;;;;;;;;;;;;;;-0.46;100.00;100760.38;5019199;28;19963;-88
2021/12/15 02:10:01;;;;;;;;;;;;;;;-0.47;100.00;100766.44;5012639;28;19964;-87
2021/12/15 02:12:32;;;;;;;;;;;;;;;-0.46;100.00;100764.69;5005055;28;19980;-88
2021/12/15 02:14:58;;;;;;;;;;;;;;;-0.45;100.00;100767.25;5002629;28;19917;-87
2021/12/15 02:17:23;;;;;;;;;;;;;;;-0.53;100.00;100779.56;5039274;28;19929;-87
2021/12/15 02:19:48;;;;;;;;;;;;;;;-0.62;100.00;100774.66;5007861;28;19940;-87
2021/12/15 02:22:14;;;;;;;;;;;;;;;-0.68;100.00;100780.03;5007992;28;19943;-87
2021/12/15 02:24:41;;;;;;;;;;;;;;;-0.82;100.00;100769.16;4999896;28;19965;-89
2021/12/15 02:27:11;;;;;;;;;;;;;;;-0.87;100.00;100773.63;5016923;28;19988;-87
2021/12/15 02:29:41;;;;;;;;;;;;;;;-0.80;100.00;100775.16;5018052;28;19925;-88
2021/12/15 02:37:27;;;;;;;;;;;;;;;-0.64;100.00;100784.22;5002462;28;19917;-88
2021/12/15 02:40:00;;;;;;;;;;;;;;;-0.61;100.00;100788.47;5000581;28;19924;-88
2021/12/15 02:42:29;;;;;;;;;;;;;;;-0.57;100.00;100775.38;5002897;28;19921;-88
2021/12/15 02:44:55;;;;;;;;;;;;;;;-0.55;100.00;100776.19;5000447;28;19953;-88
2021/12/15 02:47:22;;;;;;;;;;;;;;;-0.55;100.00;100780.53;5003446;28;19964;-87
2021/12/15 02:49:49;;;;;;;;;;;;;;;-0.59;100.00;100778.94;4998732;28;20378;-87
2021/12/15 02:52:15;;;;;;;;;;;;;;;-0.57;100.00;100787.50;5003203;28;19917;-88
2021/12/15 02:54:40;;;;;;;;;;;;;;;-0.59;100.00;100782.34;5000640;28;19926;-88
2021/12/15 02:57:10;;;;;;;;;;;;;;;-0.59;100.00;100784.13;5002157;28;19918;-89
2021/12/15 02:59:46;;;;;;;;;;;;;;;-0.67;100.00;100794.69;5001319;28;20335;-89
2021/12/15 03:02:47;;;;;;;;;;;;;;;-0.68;100.00;100790.38;4999640;28;20008;-87
2021/12/15 03:05:13;;;;;;;;;;;;;;;-0.77;100.00;100780.28;4999978;28;20414;-88
2021/12/15 03:15:41;;;;;;;;;;;;;;;-1.03;100.00;100793.06;5007011;28;20471;-87
2021/12/15 03:18:12;;;;;;;;;;;;;;;-0.97;100.00;100808.47;5004893;28;19917;-87
2021/12/15 03:20:48;;;;;;;;;;;;;;;-0.96;100.00;100794.63;5015064;28;19917;-87
2021/12/15 03:23:14;;;;;;;;;;;;;;;-0.97;100.00;100792.91;5016033;28;19916;-87
2021/12/15 03:25:40;;;;;;;;;;;;;;;-0.97;100.00;100788.59;5015119;28;20352;-88
2021/12/15 03:34:40;;;;;;;;;;;;;;;-1.05;100.00;100794.84;5001003;28;19984;-85
2021/12/15 03:36:51;;;;;;;;;;;;;;;-1.03;100.00;100790.47;5002175;28;19918;-87
2021/12/15 03:39:16;;;;;;;;;;;;;;;-0.99;100.00;100794.69;5006583;28;19917;-87
2021/12/15 03:41:42;;;;;;;;;;;;;;;-1.03;100.00;100785.31;5006948;28;19940;-88
2021/12/15 03:44:08;;;;;;;;;;;;;;;-1.05;100.00;100779.28;5003823;28;20321;-88
2021/12/15 03:46:33;;;;;;;;;;;;;;;-1.06;100.00;100777.63;5007088;28;19943;-88
2021/12/15 03:48:59;;;;;;;;;;;;;;;-1.04;100.00;100788.78;5002494;28;19925;-87
2021/12/15 03:51:24;;;;;;;;;;;;;;;-1.05;100.00;100784.47;5003177;28;19917;-87
2021/12/15 03:53:50;;;;;;;;;;;;;;;-1.04;100.00;100791.38;5006136;28;20389;-88
2021/12/15 03:56:16;;;;;;;;;;;;;;;-1.05;100.00;100792.25;5002455;28;20346;-87
2021/12/15 03:58:42;;;;;;;;;;;;;;;-1.06;100.00;100782.81;5020808;28;20385;-88
2021/12/15 04:01:11;;;;;;;;;;;;;;;-1.11;100.00;100793.25;5003741;28;19983;-87
2021/12/15 04:03:42;;;;;;;;;;;;;;;-1.18;100.00;100793.47;5003131;28;19978;-87
2021/12/15 04:06:09;;;;;;;;;;;;;;;-1.23;100.00;100791.84;5008568;28;19917;-86
2021/12/15 04:08:36;;;;;;;;;;;;;;;-1.19;100.00;100802.13;5006803;28;19917;-88
2021/12/15 04:11:03;;;;;;;;;;;;;;;-1.19;100.00;100789.19;5003713;28;19972;-88
2021/12/15 04:13:28;;;;;;;;;;;;;;;-1.19;100.00;100791.78;5019328;28;19924;-87
2021/12/15 04:15:57;;;;;;;;;;;;;;;-1.15;100.00;100803.75;5017943;28;20329;-91
2021/12/15 04:18:23;;;;;;;;;;;;;;;-1.15;100.00;100803.75;5005522;28;19924;-89
2021/12/15 04:20:48;;;;;;;;;;;;;;;-1.16;100.00;100795.13;5000933;28;19917;-89
2021/12/15 04:23:19;;;;;;;;;;;;;;;-1.17;100.00;100796.00;5005915;28;20285;-89
2021/12/15 04:25:45;;;;;;;;;;;;;;;-1.19;100.00;100797.81;5002150;28;19921;-88
2021/12/15 04:28:21;;;;;;;;;;;;;;;-1.17;100.00;100795.16;5034268;28;19937;-89
2021/12/15 04:30:49;;;;;;;;;;;;;;;-1.15;100.00;100798.56;5034120;28;19977;-89
2021/12/15 04:33:24;;;;;;;;;;;;;;;-1.14;100.00;100789.91;5002353;28;20015;-90
2021/12/15 04:35:50;;;;;;;;;;;;;;;-1.11;100.00;100797.59;5009264;28;19920;-89
2021/12/15 04:38:15;;;;;;;;;;;;;;;-1.07;100.00;100799.22;5006503;28;19979;-88
2021/12/15 04:40:41;;;;;;;;;;;;;;;-1.07;100.00;100802.69;5002778;28;19921;-89
2021/12/15 04:43:07;;;;;;;;;;;;;;;-1.02;100.00;100811.19;5001803;28;19922;-89
2021/12/15 04:45:33;;;;;;;;;;;;;;;-0.99;100.00;100821.44;5011674;28;20338;-86
2021/12/15 04:47:58;;;;;;;;;;;;;;;-0.97;100.00;100813.63;5012506;28;19917;-87
2021/12/15 04:50:28;;;;;;;;;;;;;;;-1.01;100.00;100817.22;5011882;28;19921;-89
2021/12/15 04:52:54;;;;;;;;;;;;;;;-1.05;100.00;100815.56;5002982;28;19925;-89
2021/12/15 04:55:21;;;;;;;;;;;;;;;-1.18;100.00;100815.06;5005886;28;19924;-89
2021/12/15 04:57:47;;;;;;;;;;;;;;;-1.33;100.00;100825.78;5006477;28;20337;-89
2021/12/15 05:00:18;;;;;;;;;;;;;;;-1.41;100.00;100818.19;5001995;28;19917;-89
2021/12/15 05:02:44;;;;;;;;;;;;;;;-1.49;100.00;100829.63;5003072;28;19925;-89
2021/12/15 05:05:10;;;;;;;;;;;;;;;-1.58;100.00;100830.69;5011486;28;19925;-88
2021/12/15 05:07:36;;;;;;;;;;;;;;;-1.63;100.00;100829.94;5013936;28;19918;-89
2021/12/15 05:10:03;;;;;;;;;;;;;;;-1.69;100.00;100830.06;5052223;28;19925;-88
2021/12/15 05:12:29;;;;;;;;;;;;;;;-1.79;100.00;100838.94;5011919;28;19917;-89
2021/12/15 05:14:54;;;;;;;;;;;;;;;-1.78;100.00;100843.22;5010235;28;20018;-89
2021/12/15 05:17:19;;;;;;;;;;;;;;;-1.86;100.00;100850.31;5041683;28;20282;-88
2021/12/15 05:19:46;;;;;;;;;;;;;;;-1.81;100.00;100853.63;5002097;28;19924;-90
2021/12/15 05:22:13;;;;;;;;;;;;;;;-1.72;100.00;100856.03;5009470;28;19932;-89
2021/12/15 05:24:39;;;;;;;;;;;;;;;-1.65;100.00;100844.66;5020618;28;19918;-89
2021/12/15 05:27:12;;;;;;;;;;;;;;;-1.61;100.00;100860.97;5039230;28;19967;-89
2021/12/15 05:29:39;;;;;;;;;;;;;;;-1.63;100.00;100863.59;5018705;28;19917;-89
2021/12/15 05:32:05;;;;;;;;;;;;;;;-1.54;100.00;100858.22;5020200;28;20008;-89
2021/12/15 05:34:31;;;;;;;;;;;;;;;-1.46;100.00;100871.81;5001328;28;19981;-87
2021/12/15 05:36:58;;;;;;;;;;;;;;;-1.46;100.00;100877.00;5001559;28;19979;-88
2021/12/15 05:39:24;;;;;;;;;;;;;;;-1.45;100.00;100873.53;5002588;28;20008;-89
2021/12/15 05:41:50;;;;;;;;;;;;;;;-1.56;100.00;100875.50;5008037;28;20002;-89
2021/12/15 05:44:16;;;;;;;;;;;;;;;-1.71;100.00;100876.69;5000617;28;19918;-89
2021/12/15 05:46:42;;;;;;;;;;;;;;;-1.80;100.00;100883.81;5012103;28;19960;-90
2021/12/15 05:49:07;;;;;;;;;;;;;;;-1.82;100.00;100895.91;5002934;28;19972;-89
2021/12/15 05:51:36;;;;;;;;;;;;;;;-1.82;100.00;100898.50;5004467;28;19939;-90
2021/12/15 05:54:02;;;;;;;;;;;;;;;-1.79;100.00;100895.88;5001687;28;19922;-91
2021/12/15 05:56:27;;;;;;;;;;;;;;;-1.75;100.00;100902.66;5003531;28;19924;-92
2021/12/15 05:58:52;;;;;;;;;;;;;;;-1.79;100.00;100903.63;5000304;28;19921;-92
2021/12/15 06:01:18;;;;;;;;;;;;;;;-1.80;100.00;100901.91;5004748;28;19925;-91
2021/12/15 06:03:43;;;;;;;;;;;;;;;-1.77;100.00;100896.69;5004370;28;19921;-91
2021/12/15 06:06:09;;;;;;;;;;;;;;;-1.72;100.00;100900.88;5002108;28;20245;-90
2021/12/15 06:08:34;;;;;;;;;;;;;;;-1.70;100.00;100893.06;5018157;28;19918;-90
2021/12/15 06:11:00;;;;;;;;;;;;;;;-1.70;100.00;100895.66;5009250;28;19924;-90
2021/12/15 06:13:27;;;;;;;;;;;;;;;-1.78;100.00;100892.41;4996284;28;19957;-87
2021/12/15 06:15:54;;;;;;;;;;;;;;;-1.90;100.00;100895.25;5034913;28;20246;-85
2021/12/15 06:18:19;;;;;;;;;;;;;;;-1.92;100.00;100907.34;4657781;28;9999602;-81
2021/12/15 06:20:46;;;;;;;;;;;;;;;-1.95;100.00;100908.28;5002658;28;19918;-81
2021/12/15 06:23:18;;;;;;;;;;;;;;;-1.99;100.00;100908.34;5012527;28;19925;-85
2021/12/15 06:25:45;;;;;;;;;;;;;;;-2.00;100.00;100906.66;5006395;28;19931;-85
2021/12/15 06:28:10;;;;;;;;;;;;;;;-2.00;100.00;100904.91;4998619;28;19922;-86
2021/12/15 06:30:37;;;;;;;;;;;;;;;-1.91;100.00;100914.22;4998820;28;19923;-86
2021/12/15 06:33:03;;;;;;;;;;;;;;;-1.85;100.00;100914.97;4999636;28;19924;-83
2021/12/15 06:35:29;;;;;;;;;;;;;;;-1.80;100.00;100922.63;5016854;28;19917;-85
2021/12/15 06:37:54;;;;;;;;;;;;;;;-1.77;100.00;100919.97;4995795;28;19924;-85
2021/12/15 06:40:20;;;;;;;;;;;;;;;-1.74;100.00;100913.00;5003766;28;20324;-85
2021/12/15 06:42:45;;;;;;;;;;;;;;;-1.68;100.00;100922.38;5001916;28;19921;-85
2021/12/15 06:45:14;;;;;;;;;;;;;;;-1.65;100.00;100927.50;4998970;28;19926;-86
2021/12/15 06:58:35;;;;;;;;;;;;;;;-1.56;100.00;100939.38;4305271;28;10000678;-81
2021/12/15 07:01:03;;;;;;;;;;;;;;;-1.57;100.00;100941.09;5003923;28;19921;-83
2021/12/15 07:03:28;;;;;;;;;;;;;;;-1.60;100.00;100948.94;5005239;28;19924;-82
2021/12/15 07:05:57;;;;;;;;;;;;;;;-1.63;100.00;100951.56;5002691;28;19921;-86
2021/12/15 07:08:24;;;;;;;;;;;;;;;-1.67;100.00;100955.97;5008599;28;19933;-83
2021/12/15 07:10:50;;;;;;;;;;;;;;;-1.75;100.00;100954.41;5010102;28;19913;-83
2021/12/15 07:13:17;;;;;;;;;;;;;;;-1.74;100.00;100948.38;5000963;28;19922;-83
2021/12/15 07:15:44;;;;;;;;;;;;;;;-1.74;100.00;100963.91;5004702;28;19918;-85
2021/12/15 07:18:11;;;;;;;;;;;;;;;-1.66;100.00;100977.53;5019832;28;19968;-84
2021/12/15 07:23:08;;;;;;;;;;;;;;;-1.76;100.00;100976.00;5017252;28;19925;-83
2021/12/15 07:25:33;;;;;;;;;;;;;;;-1.81;100.00;100973.50;5006455;28;19925;-85
2021/12/15 07:27:59;;;;;;;;;;;;;;;-1.88;100.00;100976.25;5038035;28;19921;-85
2021/12/15 07:30:27;;;;;;;;;;;;;;;-1.82;100.00;100981.31;5027895;28;19909;-86
2021/12/15 07:32:53;;;;;;;;;;;;;;;-1.81;100.00;100988.19;5022369;28;20028;-82
2021/12/15 07:35:20;;;;;;;;;;;;;;;-1.80;100.00;100984.72;4999163;28;19961;-85
2021/12/15 07:37:46;;;;;;;;;;;;;;;-1.84;100.00;100994.28;5003890;28;19959;-84
2021/12/15 07:40:18;;;;;;;;;;;;;;;-1.80;100.00;100995.94;5008558;28;19999;-85
2021/12/15 07:43:07;;;;;;;;;;;;;;;-1.70;100.00;101001.75;5010810;28;19976;-84
2021/12/15 07:45:30;;;;;;;;;;;;;;;-1.58;100.00;100996.34;4999412;28;19918;-84
2021/12/15 07:47:57;;;;;;;;;;;;;;;-1.57;100.00;101000.63;5002072;28;20404;-83
2021/12/15 07:50:23;;;;;;;;;;;;;;;-1.59;100.00;101004.97;5003322;28;20266;-85
2021/12/15 07:52:50;;;;;;;;;;;;;;;-1.57;100.00;101002.38;5005481;28;19924;-84
2021/12/15 07:55:15;;;;;;;;;;;;;;;-1.64;100.00;101004.22;5005090;28;19924;-85
2021/12/15 07:57:41;;;;;;;;;;;;;;;-1.71;100.00;101007.84;5005360;28;19918;-84
2021/12/15 08:00:08;;;;;;;;;;;;;;;-1.85;100.00;101017.59;5002776;28;19976;-83
2021/12/15 08:02:37;;;;;;;;;;;;;;;-1.84;100.00;101020.16;5002903;28;19939;-84
2021/12/15 08:05:03;;;;;;;;;;;;;;;-1.78;100.00;101021.78;5003110;28;20477;-83
2021/12/15 08:07:29;;;;;;;;;;;;;;;-1.77;100.00;101024.31;5003550;28;20012;-84
2021/12/15 08:09:54;;;;;;;;;;;;;;;-1.68;100.00;101033.66;5006406;28;19924;-84
2021/12/15 08:12:19;;;;;;;;;;;;;;;-1.56;100.00;101029.97;5006541;28;19918;-85
2021/12/15 08:14:45;;;;;;;;;;;;;;;-1.49;100.00;101016.88;5002203;28;19924;-85
2021/12/15 08:17:10;;;;;;;;;;;;;;;-1.37;100.00;101024.38;5005127;28;20429;-84
2021/12/15 08:19:36;;;;;;;;;;;;;;;-1.25;100.00;101024.13;5018238;28;19925;-83
2021/12/15 08:22:01;;;;;;;;;;;;;;;-1.28;100.00;101021.59;5001659;28;20039;-85
2021/12/15 08:24:27;;;;;;;;;;;;;;;-1.24;100.00;101018.03;5002228;28;19917;-84
2021/12/15 08:26:52;;;;;;;;;;;;;;;-1.23;100.00;101029.25;5004917;28;20020;-88
2021/12/15 08:29:18;;;;;;;;;;;;;;;-1.16;100.00;101029.97;5004298;28;19922;-84
2021/12/15 08:31:43;;;;;;;;;;;;;;;-1.10;100.00;101032.44;5002097;28;20404;-85
2021/12/15 08:34:08;;;;;;;;;;;;;;;-1.12;100.00;101034.22;5017874;28;19921;-84
2021/12/15 08:36:38;;;;;;;;;;;;;;;-1.21;100.00;101035.25;5002813;28;19922;-84
2021/12/15 08:39:05;;;;;;;;;;;;;;;-1.18;100.00;101037.81;5003340;28;20333;-84
2021/12/15 08:41:30;;;;;;;;;;;;;;;-1.04;100.00;101035.75;5003526;28;19971;-84
2021/12/15 08:43:57;;;;;;;;;;;;;;;-0.92;100.00;101034.63;5001052;28;19922;-82
2021/12/15 08:46:28;;;;;;;;;;;;;;;-0.81;100.00;101037.81;5003893;28;19921;-84
2021/12/15 08:48:54;;;;;;;;;;;;;;;-0.72;100.00;101042.81;5000795;28;19988;-85
2021/12/15 08:51:25;;;;;;;;;;;;;;;-0.63;100.00;101039.97;5004391;28;19971;-85
2021/12/15 08:53:52;;;;;;;;;;;;;;;-0.54;100.00;101037.19;5007223;28;19917;-85
2021/12/15 08:56:17;;;;;;;;;;;;;;;-0.47;100.00;101033.53;5009411;28;19972;-84
2021/12/15 08:58:42;;;;;;;;;;;;;;;-0.37;100.00;101038.50;5000306;28;19918;-85
2021/12/15 09:01:09;;;;;;;;;;;;;;;-0.29;100.00;101039.16;5003142;28;19925;-85
2021/12/15 09:03:35;;;;;;;;;;;;;;;-0.22;100.00;101043.28;5003860;28;20382;-85
2021/12/15 09:06:01;;;;;;;;;;;;;;;-0.16;100.00;101043.13;5033728;28;19924;-86
2021/12/15 09:08:27;;;;;;;;;;;;;;;-0.06;100.00;101039.44;5001002;28;19918;-85
2021/12/15 09:10:55;;;;;;;;;;;;;;;0.00;100.00;101047.88;5003390;28;20244;-84
2021/12/15 09:13:21;;;;;;;;;;;;;;;0.08;100.00;101052.03;4999061;28;19918;-84
2021/12/15 09:15:47;;;;;;;;;;;;;;;0.16;100.00;101050.09;5003707;28;19955;-84
2021/12/15 09:18:13;;;;;;;;;;;;;;;0.22;100.00;101050.78;5000052;28;19956;-84
2021/12/15 09:20:40;;;;;;;;;;;;;;;0.32;100.00;101043.59;5001949;28;19984;-85
2021/12/15 09:23:08;;;;;;;;;;;;;;;0.39;100.00;101053.78;5001231;28;19925;-84
2021/12/15 09:25:34;;;;;;;;;;;;;;;0.41;100.00;101046.78;5004484;28;19921;-84
2021/12/15 09:28:00;;;;;;;;;;;;;;;0.43;100.00;101048.47;4999926;28;19924;-86
2021/12/15 09:30:27;;;;;;;;;;;;;;;0.48;100.00;101057.84;5000619;28;19917;-86
2021/12/15 09:32:52;;;;;;;;;;;;;;;0.56;100.00;101055.91;5003153;28;19917;-86
2021/12/15 09:35:19;;;;;;;;;;;;;;;0.65;100.00;101055.63;4999373;28;19968;-85
2021/12/15 09:37:44;;;;;;;;;;;;;;;0.77;100.00;101059.59;5002878;28;20389;-85
2021/12/15 09:40:11;;;;;;;;;;;;;;;0.81;100.00;101061.25;5015652;28;19924;-83
2021/12/15 09:42:39;;;;;;;;;;;;;;;0.77;100.00;101065.66;5001976;28;20327;-84
2021/12/15 09:45:22;;;;;;;;;;;;;;;0.82;100.00;101055.16;5000926;28;19963;-84
2021/12/15 10:07:18;;;;;;;;;;;;;;;1.46;100.00;101061.84;5001407;28;19928;-85
2021/12/15 10:17:33;;;;;;;;;;;;;;;1.94;100.00;101056.78;5003204;28;19921;-85
2021/12/15 10:20:01;;;;;;;;;;;;;;;2.03;100.00;101059.06;5023026;28;19921;-86
2021/12/15 10:24:59;;;;;;;;;;;;;;;2.20;100.00;101050.66;5005634;28;19961;-84
2021/12/15 10:27:45;;;;;;;;;;;;;;;2.29;100.00;101054.72;5005089;28;19956;-85
2021/12/15 10:30:18;;;;;;;;;;;;;;;2.36;100.00;101045.75;5006720;28;20290;-85
2021/12/15 10:32:44;;;;;;;;;;;;;;;2.36;100.00;101045.75;5004113;28;20358;-84
2021/12/15 10:35:21;;;;;;;;;;;;;;;2.41;100.00;101038.66;5006421;28;19918;-84
2021/12/15 10:38:06;;;;;;;;;;;;;;;2.51;100.00;101045.22;5019719;28;19918;-84
2021/12/15 10:40:38;;;;;;;;;;;;;;;2.60;100.00;101042.25;5013566;28;19935;-83
2021/12/15 10:43:04;;;;;;;;;;;;;;;2.67;100.00;101046.34;5010037;28;19925;-87
2021/12/15 10:45:35;;;;;;;;;;;;;;;2.75;100.00;101043.47;5005753;28;19980;-85
2021/12/15 10:48:01;;;;;;;;;;;;;;;2.80;100.00;101042.38;5006897;28;19917;-86
2021/12/15 10:50:27;;;;;;;;;;;;;;;2.88;100.00;101040.34;5019604;28;19975;-86
2021/12/15 10:52:57;;;;;;;;;;;;;;;3.02;100.00;101031.97;5004667;28;19921;-86
2021/12/15 10:55:37;;;;;;;;;;;;;;;3.07;100.00;101027.44;5011162;28;19917;-86
2021/12/15 10:58:21;;;;;;;;;;;;;;;3.15;100.00;101029.75;5006203;28;20369;-85
2021/12/15 11:00:46;;;;;;;;;;;;;;;3.22;100.00;101028.59;5002835;28;19917;-86
2021/12/15 11:03:16;;;;;;;;;;;;;;;3.27;100.00;101026.66;5005612;28;20016;-85
2021/12/15 11:05:41;;;;;;;;;;;;;;;3.32;100.00;101019.50;5007172;28;19928;-85
2021/12/15 11:08:08;;;;;;;;;;;;;;;3.38;100.00;101018.38;5004107;28;19918;-87
2021/12/15 11:10:35;;;;;;;;;;;;;;;3.42;100.00;101012.97;5005370;28;19917;-86
2021/12/15 11:13:05;;;;;;;;;;;;;;;3.48;100.00;101004.06;5002974;28;20389;-85
2021/12/15 11:15:40;;;;;;;;;;;;;;;3.55;100.00;101006.34;5029188;22;19928;-80
2021/12/15 11:18:17;;;;;;;;;;;;;;;3.60;100.00;101007.00;5033552;28;19987;-78
2021/12/15 11:20:50;;;;;;;;;;;;;;;3.66;100.00;100998.94;5030780;28;19944;-81
2021/12/15 11:23:16;;;;;;;;;;;;;;;3.74;100.00;101005.59;5035243;28;19943;-78
2021/12/15 11:25:42;;;;;;;;;;;;;;;3.80;100.00;100998.34;5034473;28;19921;-80
2021/12/15 11:28:13;;;;;;;;;;;;;;;3.89;100.00;101000.56;5035013;28;19923;-82
2021/12/15 11:30:45;;;;;;;;;;;;;;;3.99;100.00;101001.88;5036050;28;19980;-80
2021/12/15 11:33:12;;;;;;;;;;;;;;;4.07;100.00;100998.91;5040127;28;19916;-79
2021/12/15 11:35:46;;;;;;;;;;;;;;;4.19;100.00;100998.38;5040473;28;19925;-80
2021/12/15 11:38:13;;;;;;;;;;;;;;;4.33;100.00;101008.25;5038084;28;20143;-81
2021/12/15 11:40:39;;;;;;;;;;;;;;;4.48;100.00;101011.00;5035962;28;19929;-80
2021/12/15 11:43:05;;;;;;;;;;;;;;;4.64;100.00;101007.72;5035444;28;20322;-80
2021/12/15 11:45:31;;;;;;;;;;;;;;;4.75;100.00;101002.84;5035222;28;19917;-81
2021/12/15 11:48:12;;;;;;;;;;;;;;;4.86;100.00;101000.56;5034122;28;20651;-80
2021/12/15 11:50:39;;;;;;;;;;;;;;;4.97;100.00;100998.31;5038734;28;19990;-81
2021/12/15 11:53:05;;;;;;;;;;;;;;;5.06;100.00;100997.88;5038331;28;19917;-80
2021/12/15 11:55:33;;;;;;;;;;;;;;;5.19;100.00;101003.34;5039823;28;20387;-79
2021/12/15 11:57:59;;;;;;;;;;;;;;;5.30;100.00;100999.31;5021995;28;19928;-80
2021/12/15 12:00:27;;;;;;;;;;;;;;;5.42;100.00;100999.66;5041406;28;19917;-80
2021/12/15 12:02:54;;;;;;;;;;;;;;;5.51;100.00;100989.56;5035517;28;19995;-81
2021/12/15 12:05:32;;;;;;;;;;;;;;;5.58;100.00;100980.50;5036530;28;20016;-80
2021/12/15 12:07:59;;;;;;;;;;;;;;;5.61;100.00;100985.56;5038154;28;20000;-80
2021/12/15 12:10:30;;;;;;;;;;;;;;;5.61;100.00;100989.94;5041129;28;19971;-81
2021/12/15 12:13:04;;;;;;;;;;;;;;;5.68;100.00;100988.72;5035621;28;19917;-81
2021/12/15 12:15:31;;;;;;;;;;;;;;;5.79;100.00;100981.16;5034381;28;19917;-80
2021/12/15 12:17:57;;;;;;;;;;;;;;;5.88;100.00;100978.13;5034092;28;19917;-80
2021/12/15 12:20:25;;;;;;;;;;;;;;;5.99;100.00;100970.56;5034243;28;20002;-80
2021/12/15 12:22:51;;;;;;;;;;;;;;;6.07;100.00;100971.00;5034311;28;19917;-80
2021/12/15 12:25:19;;;;;;;;;;;;;;;6.20;100.00;100975.59;5035108;28;19966;-79
2021/12/15 12:27:45;;;;;;;;;;;;;;;6.27;100.00;100969.09;5034751;28;19925;-80
2021/12/15 12:30:12;;;;;;;;;;;;;;;6.35;100.00;100966.94;5034189;28;19970;-81
2021/12/15 12:32:39;;;;;;;;;;;;;;;6.42;100.00;100969.13;5034389;28;19917;-79
2021/12/15 12:35:08;;;;;;;;;;;;;;;6.51;100.00;100967.81;5035846;28;19932;-81
2021/12/15 12:37:34;;;;;;;;;;;;;;;6.56;100.00;100960.53;5035476;28;20002;-81
2021/12/15 12:40:08;;;;;;;;;;;;;;;6.63;100.00;100961.03;5037988;28;19917;-79
2021/12/15 12:42:36;;;;;;;;;;;;;;;6.72;100.00;100955.28;5030810;28;19983;-80
2021/12/15 12:45:11;;;;;;;;;;;;;;;6.82;100.00;100957.34;5040970;28;19927;-79
2021/12/15 12:47:43;;;;;;;;;;;;;;;6.91;100.00;100954.19;5049396;28;19901;-82
2021/12/15 13:01:08;;;;;;;;;;;;;;;7.17;100.00;100951.88;5039198;28;19936;-80
2021/12/15 13:03:37;;;;;;;;;;;;;;;7.25;100.00;100947.03;5037001;28;20583;-80
2021/12/15 13:06:07;;;;;;;;;;;;;;;7.36;100.00;100940.22;5029397;28;19917;-83
2021/12/15 13:08:34;;;;;;;;;;;;;;;7.45;100.00;100936.22;5034342;28;19917;-79
2021/12/15 13:10:59;;;;;;;;;;;;;;;7.54;100.00;100940.94;5030554;28;20027;-80
2021/12/15 13:13:27;;;;;;;;;;;;;;;7.51;100.00;100930.63;5032632;28;20381;-80
2021/12/15 13:16:04;;;;;;;;;;;;;;;7.50;100.00;100934.19;5030683;28;19917;-83
2021/12/15 13:18:42;;;;;;;;;;;;;;;7.47;100.00;100937.00;5032438;28;20373;-80
2021/12/15 13:21:11;;;;;;;;;;;;;;;7.56;100.00;100933.81;5028228;28;19914;-80
2021/12/15 13:23:43;;;;;;;;;;;;;;;7.64;100.00;100936.00;5031476;28;19963;-76
2021/12/15 13:29:13;;;;;;;;;;;;;;;7.82;100.00;100930.50;5026808;28;20215;-78
2021/12/15 13:31:50;;;;;;;;;;;;;;;7.90;100.00;100937.06;5030955;28;19917;-77
2021/12/15 13:34:32;;;;;;;;;;;;;;;7.91;100.00;100944.00;5029605;28;19917;-81
2021/12/15 13:36:59;;;;;;;;;;;;;;;7.90;100.00;100950.19;5034109;28;19917;-80
2021/12/15 13:39:24;;;;;;;;;;;;;;;7.90;100.00;100943.16;5033761;28;19920;-82
2021/12/15 13:42:03;;;;;;;;;;;;;;;7.91;100.00;100944.00;5031861;28;20023;-80
2021/12/15 13:44:47;;;;;;;;;;;;;;;7.86;100.00;100946.06;5029423;28;19917;-79
2021/12/15 13:47:16;;;;;;;;;;;;;;;7.80;100.00;100947.28;5030610;28;20348;-79
2021/12/15 13:49:42;;;;;;;;;;;;;;;7.74;100.00;100948.50;5031147;28;20270;-78
2021/12/15 13:52:10;;;;;;;;;;;;;;;7.71;100.00;100948.69;5030896;28;19924;-79
2021/12/15 13:54:35;;;;;;;;;;;;;;;7.65;100.00;100954.31;5030760;28;20357;-75
2021/12/15 13:57:03;;;;;;;;;;;;;;;7.55;100.00;100955.75;5030841;28;19968;-78
2021/12/15 13:59:36;;;;;;;;;;;;;;;7.46;100.00;100952.84;5030708;28;19968;-80
2021/12/15 14:02:10;;;;;;;;;;;;;;;7.38;100.00;100956.75;5031253;28;19949;-81